sensor_id;sensor_type;location;lat;lon;timestamp;pressure;altitude;pressure_sealevel;temperature;humidity
20983;BME280;10650;51.528;6.748;2022-07-30T00:00:53;101491.22;;;18.84;68.11
20983;BME280;10650;51.528;6.748;2022-07-30T00:03:21;101489.59;;;18.79;68.56
20983;BME280;10650;51.528;6.748;2022-07-30T00:05:49;101486.97;;;18.76;68.65
20983;BME280;10650;51.528;6.748;2022-07-30T00:08:16;101492.44;;;18.74;68.58
20983;BME280;10650;51.528;6.748;2022-07-30T00:10:44;101490.75;;;18.70;68.43
20983;BME280;10650;51.528;6.748;2022-07-30T00:13:15;101493.50;;;18.68;68.39
20983;BME280;10650;51.528;6.748;2022-07-30T00:15:43;101481.84;;;18.66;68.48
20983;BME280;10650;51.528;6.748;2022-07-30T00:18:12;101487.34;;;18.63;68.48
20983;BME280;10650;51.528;6.748;2022-07-30T00:20:40;101486.53;;;18.61;68.78
20983;BME280;10650;51.528;6.748;2022-07-30T00:23:09;101481.16;;;18.60;68.81
20983;BME280;10650;51.528;6.748;2022-07-30T00:25:37;101487.53;;;18.57;68.98
20983;BME280;10650;51.528;6.748;2022-07-30T00:28:05;101479.47;;;18.56;68.86
20983;BME280;10650;51.528;6.748;2022-07-30T00:30:33;101477.78;;;18.52;68.68
20983;BME280;10650;51.528;6.748;2022-07-30T00:33:01;101478.78;;;18.49;69.07
20983;BME280;10650;51.528;6.748;2022-07-30T00:35:30;101471.66;;;18.45;69.25
20983;BME280;10650;51.528;6.748;2022-07-30T00:37:58;101473.59;;;18.41;69.24
20983;BME280;10650;51.528;6.748;2022-07-30T00:40:26;101477.31;;;18.37;69.53
20983;BME280;10650;51.528;6.748;2022-07-30T00:42:53;101475.63;;;18.33;69.57
20983;BME280;10650;51.528;6.748;2022-07-30T00:45:21;101472.06;;;18.32;69.79
20983;BME280;10650;51.528;6.748;2022-07-30T00:47:49;101477.44;;;18.34;69.62
20983;BME280;10650;51.528;6.748;2022-07-30T00:50:17;101478.41;;;18.31;69.77
20983;BME280;10650;51.528;6.748;2022-07-30T00:52:48;101478.44;;;18.30;69.80
20983;BME280;10650;51.528;6.748;2022-07-30T00:55:16;101484.81;;;18.27;69.87
20983;BME280;10650;51.528;6.748;2022-07-30T00:57:44;101488.50;;;18.25;69.99
20983;BME280;10650;51.528;6.748;2022-07-30T01:00:14;101482.25;;;18.23;70.09
20983;BME280;10650;51.528;6.748;2022-07-30T01:02:42;101487.72;;;18.21;70.31
20983;BME280;10650;51.528;6.748;2022-07-30T01:05:10;101482.41;;;18.16;70.29
20983;BME280;10650;51.528;6.748;2022-07-30T01:07:38;101480.66;;;18.15;70.33
20983;BME280;10650;51.528;6.748;2022-07-30T01:10:09;101490.63;;;18.13;70.46
20983;BME280;10650;51.528;6.748;2022-07-30T01:12:38;101484.34;;;18.13;70.56
20983;BME280;10650;51.528;6.748;2022-07-30T01:15:08;101491.63;;;18.09;70.66
20983;BME280;10650;51.528;6.748;2022-07-30T01:17:36;101489.94;;;18.07;70.62
20983;BME280;10650;51.528;6.748;2022-07-30T01:20:07;101492.69;;;18.04;70.72
20983;BME280;10650;51.528;6.748;2022-07-30T01:22:44;101496.44;;;17.98;70.72
20983;BME280;10650;51.528;6.748;2022-07-30T01:25:23;101491.28;;;17.90;71.16
20983;BME280;10650;51.528;6.748;2022-07-30T01:27:58;101490.41;;;17.88;71.08
20983;BME280;10650;51.528;6.748;2022-07-30T01:30:29;101495.00;;;17.85;71.26
20983;BME280;10650;51.528;6.748;2022-07-30T01:33:00;101486.06;;;17.83;71.12
20983;BME280;10650;51.528;6.748;2022-07-30T01:35:31;101492.44;;;17.80;71.13
20983;BME280;10650;51.528;6.748;2022-07-30T01:38:02;101484.38;;;17.78;71.68
20983;BME280;10650;51.528;6.748;2022-07-30T01:40:31;101492.50;;;17.77;71.49
20983;BME280;10650;51.528;6.748;2022-07-30T01:43:01;101492.63;;;17.72;71.52
20983;BME280;10650;51.528;6.748;2022-07-30T01:45:31;101493.63;;;17.70;71.67
20983;BME280;10650;51.528;6.748;2022-07-30T01:48:08;101501.72;;;17.70;72.02
20983;BME280;10650;51.528;6.748;2022-07-30T01:50:42;101501.75;;;17.68;71.95
20983;BME280;10650;51.528;6.748;2022-07-30T01:53:13;101500.97;;;17.63;72.00
20983;BME280;10650;51.528;6.748;2022-07-30T01:55:42;101496.53;;;17.60;72.25
20983;BME280;10650;51.528;6.748;2022-07-30T01:58:12;101505.59;;;17.58;72.49
20983;BME280;10650;51.528;6.748;2022-07-30T02:00:44;101496.66;;;17.56;73.34
20983;BME280;10650;51.528;6.748;2022-07-30T02:03:13;101502.13;;;17.54;73.80
20983;BME280;10650;51.528;6.748;2022-07-30T02:05:49;101507.56;;;17.53;74.09
20983;BME280;10650;51.528;6.748;2022-07-30T02:08:23;101505.72;;;17.53;73.95
20983;BME280;10650;51.528;6.748;2022-07-30T02:10:57;101505.66;;;17.56;74.16
20983;BME280;10650;51.528;6.748;2022-07-30T02:13:29;101507.44;;;17.57;74.35
20983;BME280;10650;51.528;6.748;2022-07-30T02:16:00;101507.38;;;17.59;74.23
20983;BME280;10650;51.528;6.748;2022-07-30T02:18:37;101507.34;;;17.60;74.00
20983;BME280;10650;51.528;6.748;2022-07-30T02:21:06;101510.91;;;17.62;74.04
20983;BME280;10650;51.528;6.748;2022-07-30T02:23:41;101501.91;;;17.62;74.04
20983;BME280;10650;51.528;6.748;2022-07-30T02:26:12;101511.78;;;17.63;73.64
20983;BME280;10650;51.528;6.748;2022-07-30T02:28:44;101508.25;;;17.59;73.81
20983;BME280;10650;51.528;6.748;2022-07-30T02:31:16;101509.25;;;17.57;73.63
20983;BME280;10650;51.528;6.748;2022-07-30T02:33:47;101507.47;;;17.56;74.09
20983;BME280;10650;51.528;6.748;2022-07-30T02:36:17;101506.69;;;17.51;74.56
20983;BME280;10650;51.528;6.748;2022-07-30T02:38:46;101519.28;;;17.52;74.61
20983;BME280;10650;51.528;6.748;2022-07-30T02:41:16;101514.78;;;17.51;74.57
20983;BME280;10650;51.528;6.748;2022-07-30T02:43:47;101515.75;;;17.50;74.65
20983;BME280;10650;51.528;6.748;2022-07-30T02:46:17;101521.25;;;17.45;74.63
20983;BME280;10650;51.528;6.748;2022-07-30T02:48:46;101514.97;;;17.44;75.00
20983;BME280;10650;51.528;6.748;2022-07-30T02:51:17;101515.88;;;17.43;74.75
20983;BME280;10650;51.528;6.748;2022-07-30T02:53:47;101511.47;;;17.41;74.89
20983;BME280;10650;51.528;6.748;2022-07-30T02:56:18;101509.69;;;17.40;75.11
20983;BME280;10650;51.528;6.748;2022-07-30T02:58:50;101513.34;;;17.37;75.32
20983;BME280;10650;51.528;6.748;2022-07-30T03:01:20;101511.59;;;17.35;75.28
20983;BME280;10650;51.528;6.748;2022-07-30T03:03:50;101509.84;;;17.32;75.16
20983;BME280;10650;51.528;6.748;2022-07-30T03:06:18;101509.94;;;17.29;75.34
20983;BME280;10650;51.528;6.748;2022-07-30T03:08:47;101515.41;;;17.26;75.70
20983;BME280;10650;51.528;6.748;2022-07-30T03:11:17;101510.94;;;17.25;75.73
20983;BME280;10650;51.528;6.748;2022-07-30T03:13:46;101513.63;;;17.25;75.91
20983;BME280;10650;51.528;6.748;2022-07-30T03:16:16;101511.97;;;17.21;76.01
20983;BME280;10650;51.528;6.748;2022-07-30T03:18:46;101516.44;;;17.20;76.17
20983;BME280;10650;51.528;6.748;2022-07-30T03:21:14;101514.72;;;17.18;76.22
20983;BME280;10650;51.528;6.748;2022-07-30T03:23:44;101519.28;;;17.16;76.13
20983;BME280;10650;51.528;6.748;2022-07-30T03:26:13;101513.00;;;17.15;76.05
20983;BME280;10650;51.528;6.748;2022-07-30T03:28:43;101521.13;;;17.14;76.21
20983;BME280;10650;51.528;6.748;2022-07-30T03:31:14;101525.72;;;17.10;76.49
20983;BME280;10650;51.528;6.748;2022-07-30T03:33:43;101529.31;;;17.09;76.30
20983;BME280;10650;51.528;6.748;2022-07-30T03:36:13;101537.47;;;17.07;76.72
20983;BME280;10650;51.528;6.748;2022-07-30T03:38:42;101536.63;;;17.05;76.65
20983;BME280;10650;51.528;6.748;2022-07-30T03:41:11;101532.22;;;17.01;77.22
20983;BME280;10650;51.528;6.748;2022-07-30T03:43:40;101531.34;;;17.01;77.48
20983;BME280;10650;51.528;6.748;2022-07-30T03:46:09;101536.72;;;17.01;77.99
20983;BME280;10650;51.528;6.748;2022-07-30T03:48:39;101540.28;;;17.03;78.24
20983;BME280;10650;51.528;6.748;2022-07-30T03:51:07;101547.47;;;17.04;78.31
20983;BME280;10650;51.528;6.748;2022-07-30T03:53:37;101542.06;;;17.04;78.36
20983;BME280;10650;51.528;6.748;2022-07-30T03:56:07;101548.28;;;17.06;78.29
20983;BME280;10650;51.528;6.748;2022-07-30T03:58:36;101546.53;;;17.03;78.34
20983;BME280;10650;51.528;6.748;2022-07-30T04:01:04;101545.75;;;17.00;78.67
20983;BME280;10650;51.528;6.748;2022-07-30T04:03:32;101553.84;;;17.00;78.94
20983;BME280;10650;51.528;6.748;2022-07-30T04:06:01;101546.69;;;16.97;78.73
20983;BME280;10650;51.528;6.748;2022-07-30T04:08:29;101552.09;;;16.97;78.83
20983;BME280;10650;51.528;6.748;2022-07-30T04:10:57;101546.69;;;16.97;79.02
20983;BME280;10650;51.528;6.748;2022-07-30T04:13:25;101556.63;;;16.97;78.96
20983;BME280;10650;51.528;6.748;2022-07-30T04:15:57;101559.28;;;16.98;78.85
20983;BME280;10650;51.528;6.748;2022-07-30T04:18:48;101561.03;;;16.99;78.80
20983;BME280;10650;51.528;6.748;2022-07-30T04:21:19;101555.63;;;16.99;79.08
20983;BME280;10650;51.528;6.748;2022-07-30T04:23:49;101566.38;;;17.02;78.91
20983;BME280;10650;51.528;6.748;2022-07-30T04:26:31;101575.31;;;17.04;79.05
20983;BME280;10650;51.528;6.748;2022-07-30T04:29:02;101566.34;;;17.04;78.80
20983;BME280;10650;51.528;6.748;2022-07-30T04:31:31;101574.34;;;17.08;78.65
20983;BME280;10650;51.528;6.748;2022-07-30T04:34:06;101577.84;;;17.12;78.65
20983;BME280;10650;51.528;6.748;2022-07-30T04:36:38;101577.78;;;17.15;78.72
20983;BME280;10650;51.528;6.748;2022-07-30T04:39:06;101585.84;;;17.17;79.33
20983;BME280;10650;51.528;6.748;2022-07-30T04:41:37;101590.25;;;17.21;79.48
20983;BME280;10650;51.528;6.748;2022-07-30T04:44:15;101589.25;;;17.25;79.53
20983;BME280;10650;51.528;6.748;2022-07-30T04:46:43;101596.41;;;17.26;80.17
20983;BME280;10650;51.528;6.748;2022-07-30T04:49:13;101599.13;;;17.26;81.02
20983;BME280;10650;51.528;6.748;2022-07-30T04:51:44;101598.13;;;17.30;80.77
20983;BME280;10650;51.528;6.748;2022-07-30T04:54:13;101604.28;;;17.37;81.00
20983;BME280;10650;51.528;6.748;2022-07-30T04:56:43;101603.28;;;17.39;81.40
20983;BME280;10650;51.528;6.748;2022-07-30T04:59:21;101600.56;;;17.42;81.46
20983;BME280;10650;51.528;6.748;2022-07-30T05:01:50;101598.69;;;17.44;81.68
20983;BME280;10650;51.528;6.748;2022-07-30T05:04:19;101602.25;;;17.45;81.93
20983;BME280;10650;51.528;6.748;2022-07-30T05:06:50;101604.91;;;17.48;82.09
20983;BME280;10650;51.528;6.748;2022-07-30T05:09:18;101603.00;;;17.52;81.89
20983;BME280;10650;51.528;6.748;2022-07-30T05:11:50;101606.59;;;17.52;82.48
20983;BME280;10650;51.528;6.748;2022-07-30T05:14:18;101615.50;;;17.57;82.43
20983;BME280;10650;51.528;6.748;2022-07-30T05:16:45;101609.16;;;17.58;82.55
20983;BME280;10650;51.528;6.748;2022-07-30T05:19:13;101619.41;;;17.44;83.46
20983;BME280;10650;51.528;6.748;2022-07-30T05:21:41;101621.22;;;17.43;84.18
20983;BME280;10650;51.528;6.748;2022-07-30T05:24:10;101624.91;;;17.39;84.61
20983;BME280;10650;51.528;6.748;2022-07-30T05:26:39;101616.75;;;17.42;85.08
20983;BME280;10650;51.528;6.748;2022-07-30T05:29:06;101613.91;;;17.49;85.06
20983;BME280;10650;51.528;6.748;2022-07-30T05:31:44;101615.53;;;17.56;84.61
20983;BME280;10650;51.528;6.748;2022-07-30T05:34:12;101626.34;;;17.56;85.11
20983;BME280;10650;51.528;6.748;2022-07-30T05:36:39;101617.28;;;17.58;85.28
20983;BME280;10650;51.528;6.748;2022-07-30T05:39:09;101626.25;;;17.59;85.43
20983;BME280;10650;51.528;6.748;2022-07-30T05:41:37;101630.63;;;17.64;85.63
20983;BME280;10650;51.528;6.748;2022-07-30T05:44:05;101632.50;;;17.62;85.96
20983;BME280;10650;51.528;6.748;2022-07-30T05:46:32;101638.59;;;17.69;85.83
20983;BME280;10650;51.528;6.748;2022-07-30T05:49:00;101642.06;;;17.76;85.93
20983;BME280;10650;51.528;6.748;2022-07-30T05:51:29;101640.19;;;17.78;86.10
20983;BME280;10650;51.528;6.748;2022-07-30T05:53:56;101647.31;;;17.82;85.78
20983;BME280;10650;51.528;6.748;2022-07-30T05:56:25;101641.09;;;17.78;86.24
20983;BME280;10650;51.528;6.748;2022-07-30T05:58:53;101649.28;;;17.75;86.64
20983;BME280;10650;51.528;6.748;2022-07-30T06:01:21;101650.13;;;17.77;86.36
20983;BME280;10650;51.528;6.748;2022-07-30T06:03:49;101650.09;;;17.79;86.64
20983;BME280;10650;51.528;6.748;2022-07-30T06:06:16;101656.41;;;17.79;86.62
20983;BME280;10650;51.528;6.748;2022-07-30T06:08:48;101650.09;;;17.79;86.53
20983;BME280;10650;51.528;6.748;2022-07-30T06:11:16;101652.75;;;17.80;87.16
20983;BME280;10650;51.528;6.748;2022-07-30T06:13:45;101649.16;;;17.80;86.74
20983;BME280;10650;51.528;6.748;2022-07-30T06:16:13;101654.53;;;17.81;86.76
20983;BME280;10650;51.528;6.748;2022-07-30T06:18:41;101654.50;;;17.83;86.78
20983;BME280;10650;51.528;6.748;2022-07-30T06:21:09;101657.16;;;17.85;86.92
20983;BME280;10650;51.528;6.748;2022-07-30T06:23:37;101651.75;;;17.85;87.00
20983;BME280;10650;51.528;6.748;2022-07-30T06:26:04;101651.63;;;17.89;87.13
20983;BME280;10650;51.528;6.748;2022-07-30T06:28:32;101663.19;;;17.97;86.55
20983;BME280;10650;51.528;6.748;2022-07-30T06:31:05;101661.03;;;18.10;85.26
20983;BME280;10650;51.528;6.748;2022-07-30T06:33:33;101667.84;;;18.25;84.89
20983;BME280;10650;51.528;6.748;2022-07-30T06:36:01;101663.97;;;18.37;83.77
20983;BME280;10650;51.528;6.748;2022-07-30T06:38:29;101662.00;;;18.42;83.18
20983;BME280;10650;51.528;6.748;2022-07-30T06:40:56;101667.97;;;18.55;82.97
20983;BME280;10650;51.528;6.748;2022-07-30T06:43:29;101669.38;;;18.70;81.93
20983;BME280;10650;51.528;6.748;2022-07-30T06:45:57;101668.03;;;18.85;81.16
20983;BME280;10650;51.528;6.748;2022-07-30T06:48:29;101669.56;;;18.95;80.52
20983;BME280;10650;51.528;6.748;2022-07-30T06:50:56;101668.94;;;19.17;79.97
20983;BME280;10650;51.528;6.748;2022-07-30T06:53:24;101676.88;;;19.23;78.40
20983;BME280;10650;51.528;6.748;2022-07-30T06:55:52;101675.72;;;19.32;77.95
20983;BME280;10650;51.528;6.748;2022-07-30T06:58:26;101673.56;;;19.43;76.73
20983;BME280;10650;51.528;6.748;2022-07-30T07:00:54;101674.22;;;19.51;76.42
20983;BME280;10650;51.528;6.748;2022-07-30T07:03:22;101677.50;;;19.61;75.76
20983;BME280;10650;51.528;6.748;2022-07-30T07:06:06;101671.78;;;19.70;74.75
20983;BME280;10650;51.528;6.748;2022-07-30T07:08:34;101683.25;;;19.80;73.99
20983;BME280;10650;51.528;6.748;2022-07-30T07:11:02;101681.44;;;19.81;72.97
20983;BME280;10650;51.528;6.748;2022-07-30T07:13:30;101679.25;;;19.92;73.19
20983;BME280;10650;51.528;6.748;2022-07-30T07:15:58;101685.16;;;20.05;72.34
20983;BME280;10650;51.528;6.748;2022-07-30T07:18:26;101680.97;;;19.95;72.32
20983;BME280;10650;51.528;6.748;2022-07-30T07:20:53;101676.59;;;20.17;71.94
20983;BME280;10650;51.528;6.748;2022-07-30T07:23:23;101674.59;;;20.22;70.91
20983;BME280;10650;51.528;6.748;2022-07-30T07:26:05;101684.41;;;20.27;70.34
20983;BME280;10650;51.528;6.748;2022-07-30T07:28:33;101675.00;;;20.12;70.13
20983;BME280;10650;51.528;6.748;2022-07-30T07:31:00;101683.03;;;20.15;70.63
20983;BME280;10650;51.528;6.748;2022-07-30T07:33:29;101679.78;;;20.30;70.45
20983;BME280;10650;51.528;6.748;2022-07-30T07:35:56;101685.50;;;20.48;70.13
20983;BME280;10650;51.528;6.748;2022-07-30T07:38:25;101681.56;;;20.56;69.30
20983;BME280;10650;51.528;6.748;2022-07-30T07:40:53;101690.31;;;20.65;69.61
20983;BME280;10650;51.528;6.748;2022-07-30T07:43:21;101688.97;;;20.78;69.22
20983;BME280;10650;51.528;6.748;2022-07-30T07:45:50;101677.75;;;20.87;68.94
20983;BME280;10650;51.528;6.748;2022-07-30T07:48:18;101687.28;;;20.99;68.80
20983;BME280;10650;51.528;6.748;2022-07-30T07:50:46;101690.75;;;21.03;67.72
20983;BME280;10650;51.528;6.748;2022-07-30T07:53:14;101685.88;;;20.87;67.41
20983;BME280;10650;51.528;6.748;2022-07-30T07:55:43;101686.84;;;20.86;67.21
20983;BME280;10650;51.528;6.748;2022-07-30T07:58:11;101681.97;;;20.96;67.63
20983;BME280;10650;51.528;6.748;2022-07-30T08:00:51;101688.16;;;21.00;67.21
20983;BME280;10650;51.528;6.748;2022-07-30T08:03:18;101678.72;;;21.10;66.49
20983;BME280;10650;51.528;6.748;2022-07-30T08:05:46;101682.75;;;21.23;66.54
20983;BME280;10650;51.528;6.748;2022-07-30T08:08:26;101674.28;;;21.31;65.65
20983;BME280;10650;51.528;6.748;2022-07-30T08:10:55;101674.94;;;21.38;65.58
20983;BME280;10650;51.528;6.748;2022-07-30T08:13:23;101674.69;;;21.44;65.29
20983;BME280;10650;51.528;6.748;2022-07-30T08:16:11;101679.13;;;21.47;65.51
20983;BME280;10650;51.528;6.748;2022-07-30T08:18:40;101676.25;;;21.51;65.12
20983;BME280;10650;51.528;6.748;2022-07-30T08:21:10;101681.53;;;21.54;65.64
20983;BME280;10650;51.528;6.748;2022-07-30T08:23:41;101677.13;;;21.74;64.69
20983;BME280;10650;51.528;6.748;2022-07-30T08:26:10;101684.78;;;21.86;63.68
20983;BME280;10650;51.528;6.748;2022-07-30T08:28:38;101680.66;;;21.76;62.81
20983;BME280;10650;51.528;6.748;2022-07-30T08:31:05;101681.44;;;21.80;62.81
20983;BME280;10650;51.528;6.748;2022-07-30T08:33:33;101677.31;;;21.91;63.07
20983;BME280;10650;51.528;6.748;2022-07-30T08:36:01;101677.75;;;22.03;62.44
20983;BME280;10650;51.528;6.748;2022-07-30T08:38:35;101678.25;;;21.90;61.70
20983;BME280;10650;51.528;6.748;2022-07-30T08:41:03;101686.63;;;21.86;62.43
20983;BME280;10650;51.528;6.748;2022-07-30T08:43:34;101686.34;;;21.92;62.50
20983;BME280;10650;51.528;6.748;2022-07-30T08:46:03;101684.84;;;22.07;62.07
20983;BME280;10650;51.528;6.748;2022-07-30T08:48:34;101687.03;;;22.19;61.85
20983;BME280;10650;51.528;6.748;2022-07-30T08:51:02;101684.88;;;22.27;61.67
20983;BME280;10650;51.528;6.748;2022-07-30T08:53:32;101677.16;;;22.39;61.19
20983;BME280;10650;51.528;6.748;2022-07-30T08:56:00;101687.31;;;22.35;60.82
20983;BME280;10650;51.528;6.748;2022-07-30T08:58:29;101693.69;;;22.34;60.56
20983;BME280;10650;51.528;6.748;2022-07-30T09:00:59;101680.56;;;22.22;59.89
20983;BME280;10650;51.528;6.748;2022-07-30T09:03:27;101676.44;;;22.34;60.64
20983;BME280;10650;51.528;6.748;2022-07-30T09:05:54;101678.59;;;22.48;60.63
20983;BME280;10650;51.528;6.748;2022-07-30T09:08:22;101682.88;;;22.33;60.25
20983;BME280;10650;51.528;6.748;2022-07-30T09:10:50;101683.22;;;22.45;60.87
20983;BME280;10650;51.528;6.748;2022-07-30T09:13:23;101685.31;;;22.59;60.48
20983;BME280;10650;51.528;6.748;2022-07-30T09:15:51;101683.75;;;22.74;59.49
20983;BME280;10650;51.528;6.748;2022-07-30T09:18:30;101681.22;;;22.90;58.80
20983;BME280;10650;51.528;6.748;2022-07-30T09:20:59;101687.41;;;22.94;57.72
20983;BME280;10650;51.528;6.748;2022-07-30T09:23:27;101680.44;;;22.87;58.06
20983;BME280;10650;51.528;6.748;2022-07-30T09:25:57;101673.31;;;22.84;57.73
20983;BME280;10650;51.528;6.748;2022-07-30T09:28:28;101668.28;;;22.95;58.21
20983;BME280;10650;51.528;6.748;2022-07-30T09:30:56;101671.50;;;23.04;57.63
20983;BME280;10650;51.528;6.748;2022-07-30T09:33:37;101672.34;;;23.06;57.00
20983;BME280;10650;51.528;6.748;2022-07-30T09:36:07;101676.88;;;23.05;57.19
20983;BME280;10650;51.528;6.748;2022-07-30T09:38:46;101667.44;;;23.14;56.97
20983;BME280;10650;51.528;6.748;2022-07-30T09:41:15;101670.03;;;23.17;56.55
20983;BME280;10650;51.528;6.748;2022-07-30T09:44:04;101669.34;;;23.12;56.28
20983;BME280;10650;51.528;6.748;2022-07-30T09:46:41;101677.72;;;23.07;55.76
20983;BME280;10650;51.528;6.748;2022-07-30T09:49:15;101677.94;;;22.82;53.91
20983;BME280;10650;51.528;6.748;2022-07-30T09:51:44;101671.19;;;22.51;54.40
20983;BME280;10650;51.528;6.748;2022-07-30T09:54:22;101672.53;;;22.61;55.10
20983;BME280;10650;51.528;6.748;2022-07-30T09:57:03;101674.56;;;22.77;54.99
20983;BME280;10650;51.528;6.748;2022-07-30T09:59:53;101669.88;;;22.99;54.45
20983;BME280;10650;51.528;6.748;2022-07-30T10:02:28;101678.19;;;23.17;53.39
20983;BME280;10650;51.528;6.748;2022-07-30T10:05:10;101670.16;;;23.33;52.74
20983;BME280;10650;51.528;6.748;2022-07-30T10:07:47;101673.19;;;23.46;53.45
20983;BME280;10650;51.528;6.748;2022-07-30T10:10:19;101674.94;;;23.66;52.97
20983;BME280;10650;51.528;6.748;2022-07-30T10:12:55;101662.84;;;23.72;51.43
20983;BME280;10650;51.528;6.748;2022-07-30T10:15:27;101674.19;;;23.81;51.11
20983;BME280;10650;51.528;6.748;2022-07-30T10:17:58;101667.25;;;23.93;51.04
20983;BME280;10650;51.528;6.748;2022-07-30T10:20:28;101666.94;;;23.99;50.01
20983;BME280;10650;51.528;6.748;2022-07-30T10:22:57;101660.28;;;24.05;50.32
20983;BME280;10650;51.528;6.748;2022-07-30T10:25:34;101660.94;;;24.10;49.44
20983;BME280;10650;51.528;6.748;2022-07-30T10:28:20;101667.75;;;24.01;47.84
20983;BME280;10650;51.528;6.748;2022-07-30T10:30:50;101668.13;;;24.11;49.01
20983;BME280;10650;51.528;6.748;2022-07-30T10:33:20;101661.34;;;24.20;48.45
20983;BME280;10650;51.528;6.748;2022-07-30T10:36:09;101671.59;;;24.32;48.95
20983;BME280;10650;51.528;6.748;2022-07-30T10:38:38;101667.91;;;24.33;48.26
20983;BME280;10650;51.528;6.748;2022-07-30T10:41:16;101669.19;;;24.44;49.08
20983;BME280;10650;51.528;6.748;2022-07-30T10:44:19;101671.75;;;24.47;45.72
20983;BME280;10650;51.528;6.748;2022-07-30T10:46:59;101681.06;;;24.43;46.09
20983;BME280;10650;51.528;6.748;2022-07-30T10:49:34;101674.09;;;24.55;46.86
20983;BME280;10650;51.528;6.748;2022-07-30T10:52:09;101676.59;;;24.59;45.83
20983;BME280;10650;51.528;6.748;2022-07-30T10:54:40;101679.56;;;24.55;45.71
20983;BME280;10650;51.528;6.748;2022-07-30T10:57:10;101674.25;;;24.51;45.49
20983;BME280;10650;51.528;6.748;2022-07-30T11:00:11;101668.09;;;24.65;46.30
20983;BME280;10650;51.528;6.748;2022-07-30T11:03:13;101671.38;;;24.55;43.65
20983;BME280;10650;51.528;6.748;2022-07-30T11:05:45;101662.19;;;24.56;45.17
20983;BME280;10650;51.528;6.748;2022-07-30T11:08:33;101669.28;;;24.60;44.03
20983;BME280;10650;51.528;6.748;2022-07-30T11:11:03;101660.94;;;24.63;44.00
20983;BME280;10650;51.528;6.748;2022-07-30T11:13:50;101655.63;;;24.60;43.04
20983;BME280;10650;51.528;6.748;2022-07-30T11:16:21;101667.03;;;24.68;43.28
20983;BME280;10650;51.528;6.748;2022-07-30T11:19:06;101658.69;;;24.71;42.90
20983;BME280;10650;51.528;6.748;2022-07-30T11:22:23;101658.69;;;24.71;42.75
20983;BME280;10650;51.528;6.748;2022-07-30T11:24:53;101656.34;;;24.81;41.90
20983;BME280;10650;51.528;6.748;2022-07-30T11:27:38;101656.38;;;24.63;42.90
20983;BME280;10650;51.528;6.748;2022-07-30T11:30:31;101666.47;;;24.44;42.76
20983;BME280;10650;51.528;6.748;2022-07-30T11:33:21;101662.19;;;24.56;43.68
20983;BME280;10650;51.528;6.748;2022-07-30T11:36:09;101656.69;;;24.75;43.47
20983;BME280;10650;51.528;6.748;2022-07-30T11:38:55;101659.72;;;24.86;42.90
20983;BME280;10650;51.528;6.748;2022-07-30T11:41:32;101661.28;;;24.90;41.67
20983;BME280;10650;51.528;6.748;2022-07-30T11:44:25;101654.50;;;24.97;42.03
20983;BME280;10650;51.528;6.748;2022-07-30T11:46:54;101667.13;;;25.00;41.95
20983;BME280;10650;51.528;6.748;2022-07-30T11:49:21;101660.13;;;25.12;42.01
20983;BME280;10650;51.528;6.748;2022-07-30T11:51:49;101649.88;;;25.15;42.56
20983;BME280;10650;51.528;6.748;2022-07-30T11:54:17;101647.50;;;25.25;42.62
20983;BME280;10650;51.528;6.748;2022-07-30T11:56:51;101649.97;;;25.30;41.84
20983;BME280;10650;51.528;6.748;2022-07-30T11:59:19;101649.41;;;25.41;42.36
20983;BME280;10650;51.528;6.748;2022-07-30T12:01:51;101641.38;;;25.37;40.74
20983;BME280;10650;51.528;6.748;2022-07-30T12:04:21;101649.06;;;25.47;41.33
20983;BME280;10650;51.528;6.748;2022-07-30T12:06:49;101648.69;;;25.53;41.12
20983;BME280;10650;51.528;6.748;2022-07-30T12:09:21;101647.44;;;25.59;40.58
20983;BME280;10650;51.528;6.748;2022-07-30T12:11:54;101647.97;;;25.65;41.00
20983;BME280;10650;51.528;6.748;2022-07-30T12:14:22;101644.88;;;25.71;40.10
20983;BME280;10650;51.528;6.748;2022-07-30T12:16:52;101645.88;;;25.70;40.14
20983;BME280;10650;51.528;6.748;2022-07-30T12:19:20;101639.50;;;25.70;39.68
20983;BME280;10650;51.528;6.748;2022-07-30T12:21:48;101644.28;;;25.66;39.51
20983;BME280;10650;51.528;6.748;2022-07-30T12:24:23;101639.50;;;25.70;39.74
20983;BME280;10650;51.528;6.748;2022-07-30T12:27:04;101641.47;;;25.68;38.44
20983;BME280;10650;51.528;6.748;2022-07-30T12:29:32;101642.03;;;25.73;39.67
20983;BME280;10650;51.528;6.748;2022-07-30T12:32:01;101634.75;;;25.73;39.08
20983;BME280;10650;51.528;6.748;2022-07-30T12:34:29;101631.00;;;25.74;38.88
20983;BME280;10650;51.528;6.748;2022-07-30T12:37:06;101631.72;;;25.78;39.48
20983;BME280;10650;51.528;6.748;2022-07-30T12:39:35;101628.72;;;25.83;39.35
20983;BME280;10650;51.528;6.748;2022-07-30T12:42:04;101634.84;;;25.72;38.43
20983;BME280;10650;51.528;6.748;2022-07-30T12:44:34;101627.84;;;25.82;40.11
20983;BME280;10650;51.528;6.748;2022-07-30T12:47:02;101635.06;;;25.99;39.99
20983;BME280;10650;51.528;6.748;2022-07-30T12:49:31;101635.16;;;25.82;38.96
20983;BME280;10650;51.528;6.748;2022-07-30T12:52:20;101632.66;;;25.93;39.34
20983;BME280;10650;51.528;6.748;2022-07-30T12:55:03;101633.44;;;26.11;39.47
20983;BME280;10650;51.528;6.748;2022-07-30T12:57:55;101628.69;;;26.29;39.52
20983;BME280;10650;51.528;6.748;2022-07-30T13:00:30;101628.91;;;26.40;39.17
20983;BME280;10650;51.528;6.748;2022-07-30T13:02:58;101621.72;;;26.54;39.08
20983;BME280;10650;51.528;6.748;2022-07-30T13:05:45;101628.47;;;26.63;39.13
20983;BME280;10650;51.528;6.748;2022-07-30T13:08:14;101635.47;;;26.38;37.77
20983;BME280;10650;51.528;6.748;2022-07-30T13:10:55;101629.06;;;26.23;37.86
20983;BME280;10650;51.528;6.748;2022-07-30T13:13:26;101629.16;;;26.21;37.19